createdAt,value
2022-12-25T00:01:13.468Z,13.10
2022-12-25T00:03:48.078Z,13.80
2022-12-25T00:06:15.172Z,12.90
2022-12-25T00:08:42.579Z,12.70
2022-12-25T00:11:15.198Z,11.90
2022-12-25T00:13:42.560Z,13.10
2022-12-25T00:16:16.962Z,12.30
2022-12-25T00:18:44.931Z,15.10
2022-12-25T00:21:13.017Z,14.80
2022-12-25T00:23:40.161Z,14.10
2022-12-25T00:26:12.136Z,14.00
2022-12-25T00:28:40.847Z,13.20
2022-12-25T00:31:13.716Z,12.80
2022-12-25T00:33:43.050Z,12.60
2022-12-25T00:36:11.164Z,14.30
2022-12-25T00:38:39.202Z,14.70
2022-12-25T00:41:11.309Z,15.10
2022-12-25T00:43:38.301Z,14.90
2022-12-25T00:46:06.566Z,15.30
2022-12-25T00:48:34.345Z,13.70
2022-12-25T00:51:07.107Z,13.20
2022-12-25T00:53:34.148Z,13.00
2022-12-25T00:56:04.724Z,13.50
2022-12-25T00:58:33.390Z,12.50
2022-12-25T01:01:02.240Z,12.20
2022-12-25T01:03:29.387Z,12.30
2022-12-25T01:06:02.018Z,12.40
2022-12-25T01:08:31.995Z,11.50
2022-12-25T01:11:01.722Z,12.20
2022-12-25T01:13:30.230Z,12.00
2022-12-25T01:15:57.461Z,12.70
2022-12-25T01:18:25.090Z,12.70
2022-12-25T01:20:53.739Z,13.30
2022-12-25T01:23:20.854Z,13.80
2022-12-25T01:25:47.743Z,13.60
2022-12-25T01:28:15.808Z,13.50
2022-12-25T01:30:50.051Z,13.10
2022-12-25T01:33:17.226Z,12.30
2022-12-25T01:35:44.165Z,13.00
2022-12-25T01:38:11.257Z,12.90
2022-12-25T01:40:38.657Z,12.30
2022-12-25T01:43:33.716Z,13.20
2022-12-25T01:46:03.335Z,13.00
2022-12-25T01:48:37.134Z,13.00
2022-12-25T01:51:29.718Z,13.20
2022-12-25T01:54:01.891Z,13.30
2022-12-25T01:56:31.335Z,12.70
2022-12-25T01:59:03.128Z,13.50
2022-12-25T02:01:31.980Z,12.60
2022-12-25T02:04:05.300Z,11.60
2022-12-25T02:06:34.169Z,12.80
2022-12-25T02:09:01.556Z,11.90
2022-12-25T02:11:47.196Z,11.60
2022-12-25T02:14:14.310Z,12.80
2022-12-25T02:16:57.652Z,11.50
2022-12-25T02:19:46.629Z,11.80
2022-12-25T02:22:31.583Z,11.60
2022-12-25T02:25:27.186Z,11.20
2022-12-25T02:28:11.841Z,11.30
2022-12-25T02:30:43.901Z,11.00
2022-12-25T02:33:38.376Z,10.90
2022-12-25T02:36:10.904Z,11.20
2022-12-25T02:39:03.442Z,10.90
2022-12-25T02:41:36.848Z,11.40
2022-12-25T02:44:28.220Z,11.40
2022-12-25T02:47:13.735Z,11.20
2022-12-25T02:50:01.131Z,10.60
2022-12-25T02:52:49.462Z,10.30
2022-12-25T02:55:42.564Z,10.80
2022-12-25T02:58:32.699Z,10.60
2022-12-25T03:01:24.199Z,10.80
2022-12-25T03:04:16.133Z,10.80
2022-12-25T03:06:58.268Z,10.30
2022-12-25T03:09:49.225Z,10.70
2022-12-25T03:12:28.301Z,10.60
2022-12-25T03:15:13.794Z,10.50
2022-12-25T03:17:40.853Z,10.70
2022-12-25T03:20:26.775Z,10.00
2022-12-25T03:23:12.541Z,10.20
2022-12-25T03:25:59.023Z,9.60
2022-12-25T03:28:26.742Z,10.60
2022-12-25T03:31:19.244Z,10.30
2022-12-25T03:34:10.697Z,10.40
2022-12-25T03:37:06.351Z,10.70
2022-12-25T03:39:52.849Z,10.90
2022-12-25T03:42:47.180Z,11.70
2022-12-25T03:45:44.722Z,11.30
2022-12-25T03:48:12.806Z,11.40
2022-12-25T03:51:10.169Z,11.50
2022-12-25T03:54:06.232Z,11.10
2022-12-25T03:56:55.695Z,10.80
2022-12-25T03:59:42.256Z,10.30
2022-12-25T04:02:28.195Z,11.00
2022-12-25T04:05:13.865Z,10.10
2022-12-25T04:07:59.180Z,10.50
2022-12-25T04:10:44.701Z,10.90
2022-12-25T04:13:30.124Z,11.20
2022-12-25T04:16:15.653Z,11.40
2022-12-25T04:19:01.040Z,12.00
2022-12-25T04:21:46.349Z,11.80
2022-12-25T04:24:31.644Z,11.80
2022-12-25T04:27:16.707Z,12.30
2022-12-25T04:30:02.519Z,11.60
2022-12-25T04:32:48.473Z,10.70
2022-12-25T04:35:33.820Z,10.70
2022-12-25T04:38:00.660Z,10.70
2022-12-25T04:40:27.524Z,10.90
2022-12-25T04:42:54.270Z,10.60
2022-12-25T04:45:21.024Z,10.50
2022-12-25T04:47:47.823Z,11.00
2022-12-25T04:50:14.517Z,10.10
2022-12-25T04:52:41.689Z,10.00
2022-12-25T04:55:10.002Z,10.10
2022-12-25T04:57:37.155Z,9.70
2022-12-25T05:00:05.056Z,9.10
2022-12-25T05:02:31.950Z,9.50
2022-12-25T05:04:58.927Z,9.80
2022-12-25T05:07:26.143Z,9.60
2022-12-25T05:09:52.812Z,9.60
2022-12-25T05:12:19.675Z,8.80
2022-12-25T05:14:46.527Z,9.10
2022-12-25T05:17:13.323Z,8.80
2022-12-25T05:19:40.044Z,8.40
2022-12-25T05:22:06.774Z,8.70
2022-12-25T05:24:33.523Z,9.40
2022-12-25T05:27:00.327Z,8.20
2022-12-25T05:29:27.197Z,9.10
2022-12-25T05:31:54.271Z,8.70
2022-12-25T05:34:21.064Z,8.20
2022-12-25T05:36:47.816Z,8.50
2022-12-25T05:39:14.542Z,8.20
2022-12-25T05:41:41.412Z,8.90
2022-12-25T05:44:08.192Z,8.50
2022-12-25T05:46:35.088Z,7.80
2022-12-25T05:49:02.310Z,8.40
2022-12-25T05:51:30.246Z,8.10
2022-12-25T05:53:57.372Z,8.60
2022-12-25T05:56:24.132Z,8.80
2022-12-25T05:58:50.958Z,8.20
2022-12-25T06:01:21.304Z,9.20
2022-12-25T06:03:48.332Z,7.70
2022-12-25T06:06:15.195Z,8.40
2022-12-25T06:08:42.417Z,9.40
2022-12-25T06:11:10.130Z,9.20
2022-12-25T06:13:36.930Z,8.40
2022-12-25T06:16:09.086Z,8.40
2022-12-25T06:18:37.785Z,8.80
2022-12-25T06:21:09.487Z,7.90
2022-12-25T06:23:37.772Z,8.30
2022-12-25T06:26:06.674Z,7.90
2022-12-25T06:28:33.414Z,8.00
2022-12-25T06:31:06.662Z,8.10
2022-12-25T06:33:33.668Z,7.90
2022-12-25T06:36:05.299Z,8.40
2022-12-25T06:38:31.997Z,7.80
2022-12-25T06:41:04.108Z,8.00
2022-12-25T06:43:30.882Z,7.80
2022-12-25T06:46:03.066Z,7.30
2022-12-25T06:48:29.957Z,7.70
2022-12-25T06:50:56.775Z,8.20
2022-12-25T06:53:23.553Z,8.80
2022-12-25T06:55:50.325Z,8.30
2022-12-25T06:58:17.123Z,9.10
2022-12-25T07:00:43.888Z,8.30
2022-12-25T07:03:19.451Z,8.40
2022-12-25T07:05:46.761Z,8.30
2022-12-25T07:08:13.796Z,7.90
2022-12-25T07:10:40.596Z,7.60
2022-12-25T07:13:07.341Z,7.80
2022-12-25T07:15:34.441Z,9.00
2022-12-25T07:18:01.666Z,9.00
2022-12-25T07:20:29.476Z,8.80
2022-12-25T07:22:56.267Z,9.30
2022-12-25T07:25:23.002Z,9.20
2022-12-25T07:27:50.082Z,8.60
2022-12-25T07:30:16.821Z,8.20
2022-12-25T07:32:49.831Z,8.60
2022-12-25T07:35:16.988Z,8.60
2022-12-25T07:37:43.738Z,9.00
2022-12-25T07:40:10.644Z,8.40
2022-12-25T07:42:37.329Z,9.20
2022-12-25T07:45:05.493Z,7.80
2022-12-25T07:47:32.567Z,8.30
2022-12-25T07:49:59.314Z,9.10
2022-12-25T07:52:26.012Z,8.60
2022-12-25T07:54:52.762Z,9.00
2022-12-25T07:57:19.580Z,8.20
2022-12-25T07:59:46.329Z,8.10
2022-12-25T08:02:13.272Z,8.60
2022-12-25T08:04:41.407Z,8.30
2022-12-25T08:07:08.144Z,8.20
2022-12-25T08:09:35.146Z,8.80
2022-12-25T08:12:01.855Z,9.30
2022-12-25T08:14:29.137Z,8.10
2022-12-25T08:16:56.045Z,7.70
2022-12-25T08:19:22.753Z,8.10
2022-12-25T08:21:49.702Z,7.30
2022-12-25T08:24:16.468Z,7.70
2022-12-25T08:26:43.170Z,11.70
2022-12-25T08:29:09.916Z,13.20
2022-12-25T08:31:42.436Z,13.30
2022-12-25T08:34:13.264Z,14.40
2022-12-25T08:36:40.933Z,14.60
2022-12-25T08:39:08.260Z,9.90
2022-12-25T08:41:37.691Z,10.00
2022-12-25T08:44:05.695Z,9.50
2022-12-25T08:46:32.718Z,9.20
2022-12-25T08:48:59.543Z,9.30
2022-12-25T08:51:26.262Z,9.00
2022-12-25T08:53:57.641Z,9.90
2022-12-25T08:56:24.739Z,27.30
2022-12-25T08:58:51.570Z,16.00
2022-12-25T09:01:18.534Z,13.60
2022-12-25T09:03:45.345Z,11.00
2022-12-25T09:06:14.598Z,12.10
2022-12-25T09:08:48.029Z,10.80
2022-12-25T09:11:17.648Z,11.60
2022-12-25T09:13:44.457Z,13.50
2022-12-25T09:16:15.043Z,11.50
2022-12-25T09:18:42.015Z,11.70
2022-12-25T09:21:11.230Z,12.70
2022-12-25T09:23:38.566Z,13.50
2022-12-25T09:26:07.357Z,10.60
2022-12-25T09:28:34.470Z,10.80
2022-12-25T09:31:01.804Z,11.00
2022-12-25T09:33:28.584Z,9.50
2022-12-25T09:35:57.282Z,10.80
2022-12-25T09:38:25.048Z,10.20
2022-12-25T09:41:02.840Z,11.10
2022-12-25T09:43:33.427Z,13.40
2022-12-25T09:46:02.311Z,10.50
2022-12-25T09:48:32.991Z,12.10
2022-12-25T09:51:09.184Z,12.10
2022-12-25T09:53:40.237Z,11.60
2022-12-25T09:56:25.607Z,11.60
2022-12-25T09:58:54.170Z,11.20
2022-12-25T10:01:41.028Z,12.20
2022-12-25T10:04:07.835Z,12.90
2022-12-25T10:06:37.340Z,12.30
2022-12-25T10:09:29.862Z,14.50
2022-12-25T10:12:40.966Z,14.80
2022-12-25T10:15:07.694Z,13.00
2022-12-25T10:17:48.694Z,10.50
2022-12-25T10:20:26.868Z,10.90
2022-12-25T10:22:58.837Z,9.30
2022-12-25T10:25:25.700Z,12.90
2022-12-25T10:27:58.204Z,12.30
2022-12-25T10:30:27.630Z,8.70
2022-12-25T10:32:56.709Z,9.40
2022-12-25T10:35:27.115Z,9.70
2022-12-25T10:38:02.572Z,9.80
2022-12-25T10:41:09.319Z,11.40
2022-12-25T10:43:49.739Z,10.10
2022-12-25T10:46:17.778Z,9.50
2022-12-25T10:48:50.690Z,11.90
2022-12-25T10:51:36.677Z,10.00
2022-12-25T10:54:19.791Z,8.90
2022-12-25T10:57:16.818Z,8.70
2022-12-25T10:59:55.822Z,8.40
2022-12-25T11:02:34.293Z,8.40
2022-12-25T11:05:08.607Z,8.00
2022-12-25T11:07:46.066Z,7.40
2022-12-25T11:10:30.233Z,7.80
2022-12-25T11:12:58.687Z,7.30
2022-12-25T11:15:35.952Z,9.40
2022-12-25T11:18:27.963Z,8.30
2022-12-25T11:21:00.505Z,11.40
2022-12-25T11:23:30.133Z,11.90
2022-12-25T11:25:58.287Z,8.20
2022-12-25T11:28:27.315Z,8.70
2022-12-25T11:31:16.320Z,10.10
2022-12-25T11:34:19.721Z,7.10
2022-12-25T11:36:49.304Z,7.00
2022-12-25T11:39:27.137Z,7.70
2022-12-25T11:42:24.020Z,7.60
2022-12-25T11:45:59.016Z,6.80
2022-12-25T11:48:49.641Z,6.70
2022-12-25T11:51:19.203Z,7.70
2022-12-25T11:53:55.565Z,6.80
2022-12-25T11:56:28.699Z,9.10
2022-12-25T11:59:09.333Z,7.30
2022-12-25T12:02:01.584Z,9.40
2022-12-25T12:07:28.460Z,7.50
2022-12-25T12:10:13.350Z,8.40
2022-12-25T12:12:55.496Z,7.90
2022-12-25T12:15:44.405Z,6.50
2022-12-25T12:18:26.709Z,9.50
2022-12-25T12:25:55.950Z,9.10
2022-12-25T12:55:39.829Z,9.60
2022-12-25T13:03:08.492Z,34.20
2022-12-25T13:10:44.617Z,25.10
2022-12-25T13:13:29.966Z,15.10
2022-12-25T13:15:57.590Z,11.80
2022-12-25T13:18:24.689Z,8.00
2022-12-25T13:21:09.569Z,10.00
2022-12-25T13:23:37.291Z,10.90
2022-12-25T13:26:17.361Z,9.30
2022-12-25T13:28:46.898Z,6.50
2022-12-25T13:31:18.186Z,10.10
2022-12-25T13:33:50.858Z,7.30
2022-12-25T13:36:17.968Z,7.40
2022-12-25T13:38:47.368Z,10.10
2022-12-25T13:41:42.533Z,9.80
2022-12-25T13:44:25.978Z,8.60
2022-12-25T13:46:52.790Z,10.10
2022-12-25T13:49:22.963Z,10.60
2022-12-25T13:51:50.628Z,11.50
2022-12-25T13:54:18.821Z,9.50
2022-12-25T13:56:51.452Z,12.10
2022-12-25T13:59:24.256Z,11.50
2022-12-25T14:01:53.193Z,10.80
2022-12-25T14:04:23.303Z,11.50
2022-12-25T14:06:52.102Z,13.60
2022-12-25T14:09:19.966Z,11.40
2022-12-25T14:11:51.801Z,9.30
2022-12-25T14:14:27.189Z,8.60
2022-12-25T14:16:56.477Z,8.30
2022-12-25T14:19:29.926Z,8.20
2022-12-25T14:22:02.425Z,8.10
2022-12-25T14:24:32.831Z,8.60
2022-12-25T14:27:02.472Z,9.70
2022-12-25T14:29:36.466Z,13.70
2022-12-25T14:32:06.277Z,12.70
2022-12-25T14:34:33.933Z,10.00
2022-12-25T14:37:03.743Z,8.70
2022-12-25T14:39:37.164Z,9.30
2022-12-25T14:42:20.798Z,9.70
2022-12-25T14:44:57.104Z,10.40
2022-12-25T14:47:24.439Z,10.40
2022-12-25T14:49:53.188Z,11.90
2022-12-25T14:52:38.918Z,9.10
2022-12-25T14:55:15.722Z,13.70
2022-12-25T14:57:48.144Z,17.80
2022-12-25T15:00:25.276Z,16.40
2022-12-25T15:02:55.373Z,14.80
2022-12-25T15:05:28.186Z,13.00
2022-12-25T15:08:04.202Z,11.40
2022-12-25T15:10:59.605Z,11.70
2022-12-25T15:13:19.324Z,11.10
2022-12-25T15:15:56.115Z,12.10
2022-12-25T15:18:27.429Z,10.00
2022-12-25T15:20:55.820Z,10.90
2022-12-25T15:23:24.736Z,12.60
2022-12-25T15:25:55.292Z,15.50
2022-12-25T15:28:22.425Z,16.50
2022-12-25T15:30:49.667Z,18.20
2022-12-25T15:33:18.922Z,19.40
2022-12-25T15:35:48.393Z,18.70
2022-12-25T15:38:15.350Z,13.40
2022-12-25T15:44:29.810Z,18.00
2022-12-25T15:47:01.464Z,16.20
2022-12-25T15:49:28.688Z,15.50
2022-12-25T15:51:55.730Z,15.10
2022-12-25T15:54:48.875Z,15.60
2022-12-25T15:57:28.456Z,17.00
2022-12-25T16:00:23.031Z,14.60
2022-12-25T16:02:50.549Z,13.90
2022-12-25T16:05:17.791Z,13.50
2022-12-25T16:07:45.339Z,17.60
2022-12-25T16:10:38.386Z,16.20
2022-12-25T16:13:06.242Z,11.50
2022-12-25T16:15:54.206Z,13.90
2022-12-25T16:18:32.552Z,14.90
2022-12-25T16:20:59.751Z,15.60
2022-12-25T16:23:26.925Z,15.30
2022-12-25T16:25:57.691Z,12.00
2022-12-25T16:29:42.965Z,12.10
2022-12-25T16:32:11.353Z,12.70
2022-12-25T16:34:40.751Z,12.00
2022-12-25T16:37:08.411Z,12.40
2022-12-25T16:39:36.780Z,11.90
2022-12-25T16:42:03.799Z,13.70
2022-12-25T16:44:30.695Z,14.40
2022-12-25T16:46:57.919Z,13.00
2022-12-25T16:49:29.139Z,12.10
2022-12-25T16:51:56.594Z,12.00
2022-12-25T16:54:30.091Z,11.90
2022-12-25T17:01:17.775Z,18.90
2022-12-25T17:03:46.755Z,28.60
2022-12-25T17:06:22.341Z,28.60
2022-12-25T17:08:58.476Z,22.10
2022-12-25T17:11:29.845Z,17.70
2022-12-25T17:14:01.998Z,17.20
2022-12-25T17:16:31.909Z,12.90
2022-12-25T17:19:01.881Z,12.20
2022-12-25T17:24:02.344Z,12.80
2022-12-25T17:26:33.666Z,12.90
2022-12-25T17:29:00.822Z,13.60
2022-12-25T17:31:28.623Z,13.70
2022-12-25T17:33:55.904Z,13.30
2022-12-25T17:36:24.647Z,13.50
2022-12-25T17:38:52.845Z,12.90
2022-12-25T17:41:22.245Z,14.10
2022-12-25T17:43:59.263Z,12.10
2022-12-25T17:46:33.746Z,18.60
2022-12-25T17:49:01.657Z,26.60
2022-12-25T17:51:30.216Z,32.90
2022-12-25T17:54:02.541Z,26.20
2022-12-25T17:56:30.022Z,32.30
2022-12-25T17:58:59.645Z,33.50
2022-12-25T18:01:54.828Z,27.70
2022-12-25T18:04:36.414Z,18.50
2022-12-25T18:07:23.885Z,16.30
2022-12-25T18:10:03.409Z,15.90
2022-12-25T18:12:30.921Z,17.40
2022-12-25T18:15:25.989Z,16.30
2022-12-25T18:18:00.454Z,16.40
2022-12-25T18:20:29.525Z,15.10
2022-12-25T18:23:03.091Z,14.40
2022-12-25T18:25:35.849Z,15.40
2022-12-25T18:32:56.615Z,13.80
2022-12-25T18:36:16.148Z,12.50
2022-12-25T18:38:53.622Z,12.80
2022-12-25T18:41:23.741Z,14.10
2022-12-25T18:46:41.235Z,14.00
2022-12-25T18:47:57.619Z,13.50
2022-12-25T18:50:40.981Z,13.90
2022-12-25T18:53:18.557Z,13.40
2022-12-25T18:56:07.252Z,14.00
2022-12-25T18:58:37.570Z,14.10
2022-12-25T19:01:19.341Z,15.40
2022-12-25T19:14:47.174Z,14.30
2022-12-25T19:17:41.536Z,13.10
2022-12-25T19:20:17.807Z,15.80
2022-12-25T19:22:47.990Z,14.40
2022-12-25T19:25:27.827Z,15.10
2022-12-25T19:28:18.286Z,13.30
2022-12-25T19:30:55.522Z,13.10
2022-12-25T19:33:22.778Z,15.20
2022-12-25T19:35:50.055Z,12.50
2022-12-25T19:38:22.200Z,12.00
2022-12-25T19:41:01.179Z,13.10
2022-12-25T19:43:31.062Z,13.70
2022-12-25T19:45:58.078Z,12.40
2022-12-25T19:48:25.181Z,14.40
2022-12-25T19:51:16.558Z,14.20
2022-12-25T19:53:47.203Z,14.80
2022-12-25T19:56:14.881Z,13.60
2022-12-25T19:58:41.720Z,13.80
2022-12-25T20:01:14.090Z,15.10
2022-12-25T20:04:36.659Z,15.60
2022-12-25T20:07:06.288Z,15.60
2022-12-25T20:09:33.068Z,17.40
2022-12-25T20:11:59.883Z,19.50
2022-12-25T20:14:27.023Z,19.40
2022-12-25T20:16:53.770Z,20.20
2022-12-25T20:19:20.677Z,18.60
2022-12-25T20:21:47.772Z,22.40
2022-12-25T20:24:15.105Z,20.80
2022-12-25T20:26:59.171Z,16.40
2022-12-25T20:29:26.481Z,16.10
2022-12-25T20:31:57.078Z,15.30
2022-12-25T20:34:24.154Z,15.00
2022-12-25T20:36:51.291Z,16.00
2022-12-25T20:39:18.321Z,15.20
2022-12-25T20:41:46.950Z,15.50
2022-12-25T20:44:15.757Z,16.80
2022-12-25T20:49:12.994Z,16.10
2022-12-25T20:51:46.383Z,18.10
2022-12-25T20:54:43.262Z,20.30
2022-12-25T20:57:58.982Z,16.50
2022-12-25T21:00:27.314Z,18.60
2022-12-25T21:03:03.482Z,20.20
2022-12-25T21:06:13.175Z,19.80
2022-12-25T21:08:57.898Z,17.40
2022-12-25T21:14:08.480Z,16.60
2022-12-25T21:16:35.777Z,17.00
2022-12-25T21:19:13.027Z,16.80
2022-12-25T21:21:43.445Z,19.00
2022-12-25T21:24:44.881Z,20.00
2022-12-25T21:27:12.078Z,21.50
2022-12-25T21:30:22.884Z,25.20
2022-12-25T21:33:51.191Z,21.60
2022-12-25T21:36:33.231Z,21.40
2022-12-25T21:39:03.671Z,20.80
2022-12-25T21:41:33.005Z,17.70
2022-12-25T21:44:02.831Z,15.20
2022-12-25T21:46:59.744Z,13.00
2022-12-25T21:49:45.342Z,12.10
2022-12-25T21:52:12.237Z,12.20
2022-12-25T21:58:05.004Z,11.40
2022-12-25T22:00:32.121Z,12.20
2022-12-25T22:02:59.175Z,11.30
2022-12-25T22:05:44.855Z,11.80
2022-12-25T22:08:11.815Z,11.70
2022-12-25T22:10:38.973Z,14.20
2022-12-25T22:13:24.288Z,14.70
2022-12-25T22:16:09.763Z,13.90
2022-12-25T22:18:55.273Z,15.50
2022-12-25T22:21:22.281Z,15.10
2022-12-25T22:23:49.285Z,14.30
2022-12-25T22:26:20.823Z,13.60
2022-12-25T22:29:05.492Z,12.90
2022-12-25T22:31:40.855Z,13.80
2022-12-25T22:34:15.252Z,11.90
2022-12-25T22:36:44.753Z,11.60
2022-12-25T22:39:12.110Z,11.60
2022-12-25T22:41:39.141Z,11.20
2022-12-25T22:44:17.877Z,11.20
2022-12-25T22:46:45.888Z,11.60
2022-12-25T22:49:18.660Z,11.50
2022-12-25T22:51:51.216Z,10.90
2022-12-25T22:54:53.619Z,10.10
2022-12-25T22:57:40.731Z,10.80
2022-12-25T23:00:08.385Z,10.50
2022-12-25T23:02:35.544Z,10.20
2022-12-25T23:05:03.190Z,10.40
2022-12-25T23:07:30.208Z,10.30
2022-12-25T23:10:01.307Z,9.90
2022-12-25T23:16:24.164Z,10.80
2022-12-25T23:19:12.396Z,10.90
2022-12-25T23:22:00.442Z,11.20
2022-12-25T23:24:46.413Z,10.40
2022-12-25T23:27:14.076Z,10.70
2022-12-25T23:29:47.334Z,10.40
2022-12-25T23:32:22.165Z,10.20
2022-12-25T23:35:10.964Z,10.30
2022-12-25T23:45:10.757Z,9.50
2022-12-25T23:47:41.097Z,8.60
2022-12-25T23:50:11.299Z,8.70
2022-12-25T23:52:39.285Z,9.00
2022-12-25T23:55:11.580Z,8.90
2022-12-25T23:57:40.900Z,8.90
